Terminal Aerodrome Forecast
Issued by NWS

Home | Current Version | Previous Version | Text Only | Print | Product List | Glossary On
Versions: 1 2 3 4 5 6 7 8 9 10 11 12 13 14 15 16
000
FTUS45 KPSR 301129
TAFIWA
TAF
KIWA 301129Z 3012/3112 09006KT P6SM SKC
      TEMPO 3015/3019 11012G16KT
     FM302100 09006KT P6SM FEW100 SCT200
     FM310130 04015G20KT P6SM SCT100 SCT180
     FM310400 12008KT P6SM SCT180
      AMD LTD TO CLD VIS AND WIND TIL 301300=

USA.gov is the U.S. government's official web portal to all federal, state and local government web resources and services.